Annapolis, Maryland
Current Conditions -  °F | °C
As of 10:54 PM on Tuesday 21 Oct 2014 (Local Time) from KNAK Reporting Station
Light Rain Light Rain  
Wind Chill: 56°   Ceiling: 7500
Heat Index: 56°   Visibility: 10mi
Dew Point: 52°   Wind: 12mph
Humidity: 87%   Direction: 330°NNW
Pressure: 29.9"   Gusts: NA
Location:  38.98°N, 76.49°W
Report Text: KNAK 220254Z AUTO 33010KT 10SM -RA BKN075 OVC090 13/11 A2990 RMK AO2 SLP125 P0001 60009 T01330111 51012
Loading
Personal Weather Stations






























Interactive Weather Map
Tropical Storm Tracking
New forecast layout! Learn more

10-Day Weather Forecast

Advertisements
Track Severe Weather on mobile